createdAt,value
2018-12-11T00:02:55.658Z,102658.69
2018-12-11T00:05:59.220Z,102657.32
2018-12-11T00:09:02.880Z,102655.85
2018-12-11T00:12:06.329Z,102647.56
2018-12-11T00:15:09.901Z,102655.63
2018-12-11T00:18:13.430Z,102660.59
2018-12-11T00:21:16.947Z,102653.62
2018-12-11T00:24:20.446Z,102655.67
2018-12-11T00:27:24.063Z,102658.87
2018-12-11T00:30:27.651Z,102663.71
2018-12-11T00:33:31.145Z,102664.08
2018-12-11T00:36:34.583Z,102658.57
2018-12-11T00:39:38.157Z,102658.02
2018-12-11T00:42:41.762Z,102651.01
2018-12-11T00:45:45.374Z,102650.27
2018-12-11T00:48:48.976Z,102649.13
2018-12-11T00:51:52.497Z,102650.57
2018-12-11T00:54:56.073Z,102650.31
2018-12-11T00:57:59.484Z,102646.37
2018-12-11T01:01:02.986Z,102642.26
2018-12-11T01:04:06.580Z,102645.27
2018-12-11T01:07:10.090Z,102643.17
2018-12-11T01:10:13.572Z,102643.72
2018-12-11T01:13:17.113Z,102643.83
2018-12-11T01:16:20.705Z,102648.87
2018-12-11T01:19:24.204Z,102650.47
2018-12-11T01:22:27.602Z,102656.10
2018-12-11T01:25:31.101Z,102656.31
2018-12-11T01:28:34.602Z,102661.91
2018-12-11T01:31:38.100Z,102659.22
2018-12-11T01:34:41.600Z,102655.61
2018-12-11T01:37:45.009Z,102648.64
2018-12-11T01:40:48.623Z,102658.07
2018-12-11T01:43:52.118Z,102648.41
2018-12-11T01:46:55.848Z,102653.44
2018-12-11T01:49:59.332Z,102659.35
2018-12-11T01:53:02.833Z,102665.88
2018-12-11T01:56:06.274Z,102663.92
2018-12-11T01:59:09.736Z,102663.50
2018-12-11T02:02:13.247Z,102659.65
2018-12-11T02:05:16.754Z,102658.36
2018-12-11T02:08:20.151Z,102667.84
2018-12-11T02:11:23.649Z,102665.24
2018-12-11T02:14:27.150Z,102661.53
2018-12-11T02:17:30.554Z,102656.08
2018-12-11T02:20:34.053Z,102656.90
2018-12-11T02:23:37.576Z,102662.48
2018-12-11T02:26:41.151Z,102660.45
2018-12-11T02:29:44.581Z,102653.59
2018-12-11T02:32:48.064Z,102662.04
2018-12-11T02:35:51.642Z,102663.59
2018-12-11T02:38:55.121Z,102668.80
2018-12-11T02:41:58.681Z,102660.17
2018-12-11T02:45:02.166Z,102663.07
2018-12-11T02:48:05.651Z,102669.98
2018-12-11T02:51:09.111Z,102662.44
2018-12-11T02:54:12.677Z,102671.45
2018-12-11T02:57:16.064Z,102661.96
2018-12-11T03:00:19.508Z,102664.33
2018-12-11T03:03:23.005Z,102671.74
2018-12-11T03:06:26.488Z,102673.08
2018-12-11T03:09:30.013Z,102670.65
2018-12-11T03:12:33.579Z,102670.92
2018-12-11T03:15:37.080Z,102667.57
2018-12-11T03:18:40.562Z,102668.71
2018-12-11T03:21:44.097Z,102665.43
2018-12-11T03:24:47.578Z,102668.83
2018-12-11T03:27:51.094Z,102653.13
2018-12-11T03:30:54.598Z,102658.02
2018-12-11T03:33:58.113Z,102662.58
2018-12-11T03:37:01.513Z,102667.68
2018-12-11T03:40:05.563Z,102665.56
2018-12-11T03:43:09.131Z,102672.01
2018-12-11T03:46:12.556Z,102672.26
2018-12-11T03:49:16.139Z,102670.03
2018-12-11T03:52:21.709Z,102665.90
2018-12-11T03:55:23.168Z,102669.97
2018-12-11T03:58:26.633Z,102673.95
2018-12-11T04:01:30.117Z,102678.83
2018-12-11T04:04:33.652Z,102677.51
2018-12-11T04:07:37.206Z,102678.81
2018-12-11T04:10:40.753Z,102673.76
2018-12-11T04:13:44.149Z,102676.29
2018-12-11T04:16:47.653Z,102674.29
2018-12-11T04:19:51.188Z,102670.89
2018-12-11T04:22:54.645Z,102669.36
2018-12-11T04:25:58.054Z,102668.34
2018-12-11T04:29:01.540Z,102671.97
2018-12-11T04:32:05.084Z,102669.79
2018-12-11T04:35:08.656Z,102679.09
2018-12-11T04:38:12.248Z,102674.46
2018-12-11T04:41:15.658Z,102683.57
2018-12-11T04:44:20.141Z,102681.94
2018-12-11T04:47:23.492Z,102686.37
2018-12-11T04:50:26.906Z,102679.87
2018-12-11T04:53:30.287Z,102676.52
2018-12-11T04:56:33.891Z,102669.21
2018-12-11T04:59:37.343Z,102678.25
2018-12-11T05:02:40.831Z,102682.38
2018-12-11T05:05:44.302Z,102683.68
2018-12-11T05:08:47.943Z,102686.45
2018-12-11T05:11:51.421Z,102678.43
2018-12-11T05:14:54.971Z,102669.50
2018-12-11T05:17:58.380Z,102678.54
2018-12-11T05:21:01.916Z,102683.07
2018-12-11T05:24:05.497Z,102682.87
2018-12-11T05:27:09.154Z,102684.90
2018-12-11T05:30:12.755Z,102675.70
2018-12-11T05:33:16.305Z,102670.99
2018-12-11T05:36:19.756Z,102673.42
2018-12-11T05:39:23.223Z,102671.97
2018-12-11T05:42:26.766Z,102668.58
2018-12-11T05:45:31.331Z,102671.54
2018-12-11T05:48:34.747Z,102667.55
2018-12-11T05:51:38.382Z,102674.36
2018-12-11T05:54:41.974Z,102669.84
2018-12-11T05:57:45.411Z,102678.42
2018-12-11T06:00:48.894Z,102679.41
2018-12-11T06:03:53.467Z,102688.12
2018-12-11T06:06:57.111Z,102687.37
2018-12-11T06:10:00.644Z,102686.41
2018-12-11T06:13:04.207Z,102682.35
2018-12-11T06:16:07.829Z,102684.60
2018-12-11T06:19:11.331Z,102690.02
2018-12-11T06:22:28.228Z,102696.70
2018-12-11T06:25:31.779Z,102688.32
2018-12-11T06:28:36.255Z,102684.99
2018-12-11T06:31:38.680Z,102692.98
2018-12-11T06:34:43.257Z,102694.71
2018-12-11T06:37:47.247Z,102695.77
2018-12-11T06:40:51.489Z,102691.49
2018-12-11T06:43:57.032Z,102695.63
2018-12-11T06:47:00.453Z,102698.90
2018-12-11T06:50:04.646Z,102703.51
2018-12-11T06:53:08.161Z,102701.61
2018-12-11T06:56:11.557Z,102696.44
2018-12-11T06:59:14.908Z,102700.62
2018-12-11T07:02:18.322Z,102701.94
2018-12-11T07:05:21.775Z,102704.41
2018-12-11T07:08:25.189Z,102704.93
2018-12-11T07:11:28.888Z,102698.49
2018-12-11T07:14:32.478Z,102701.56
2018-12-11T07:17:35.805Z,102703.77
2018-12-11T07:20:39.423Z,102713.54
2018-12-11T07:23:42.950Z,102710.25
2018-12-11T07:26:46.395Z,102712.35
2018-12-11T07:29:49.783Z,102712.09
2018-12-11T07:32:53.199Z,102719.22
2018-12-11T07:35:56.573Z,102717.86
2018-12-11T07:38:59.933Z,102726.12
2018-12-11T07:42:04.553Z,102730.22
2018-12-11T07:45:08.233Z,102727.71
2018-12-11T07:48:11.571Z,102726.50
2018-12-11T07:51:15.038Z,102727.88
2018-12-11T07:54:18.531Z,102725.48
2018-12-11T07:57:22.034Z,102732.01
2018-12-11T08:00:25.619Z,102732.93
2018-12-11T08:03:29.024Z,102727.20
2018-12-11T08:06:32.413Z,102733.65
2018-12-11T08:09:35.945Z,102734.28
2018-12-11T08:12:39.423Z,102739.42
2018-12-11T08:15:42.845Z,102746.43
2018-12-11T08:18:46.250Z,102742.64
2018-12-11T08:21:49.646Z,102742.97
2018-12-11T08:24:52.983Z,102742.35
2018-12-11T08:27:56.461Z,102747.13
2018-12-11T08:30:59.783Z,102741.40
2018-12-11T08:34:03.263Z,102736.96
2018-12-11T08:37:06.604Z,102743.81
2018-12-11T08:40:09.986Z,102739.83
2018-12-11T08:43:13.852Z,102739.10
2018-12-11T08:46:17.269Z,102736.50
2018-12-11T08:49:20.598Z,102733.38
2018-12-11T08:52:24.087Z,102726.93
2018-12-11T08:55:27.770Z,102733.52
2018-12-11T08:58:31.156Z,102734.69
2018-12-11T09:01:34.585Z,102732.53
2018-12-11T09:04:38.081Z,102729.81
2018-12-11T09:07:41.578Z,102737.09
2018-12-11T09:10:44.967Z,102729.74
2018-12-11T09:13:48.363Z,102732.68
2018-12-11T09:16:51.801Z,102730.62
2018-12-11T09:19:56.299Z,102728.38
2018-12-11T09:22:59.714Z,102735.99
2018-12-11T09:26:03.519Z,102733.77
2018-12-11T09:29:06.896Z,102742.07
2018-12-11T09:32:10.451Z,102741.28
2018-12-11T09:35:13.924Z,102739.30
2018-12-11T09:38:17.336Z,102738.89
2018-12-11T09:41:20.687Z,102740.22
2018-12-11T09:44:24.064Z,102733.69
2018-12-11T09:47:27.502Z,102742.85
2018-12-11T09:50:30.892Z,102736.77
2018-12-11T09:53:34.294Z,102732.76
2018-12-11T09:56:37.912Z,102737.89
2018-12-11T09:59:41.323Z,102733.12
2018-12-11T10:02:44.773Z,102719.75
2018-12-11T10:05:48.345Z,102727.50
2018-12-11T10:08:51.770Z,102721.53
2018-12-11T10:11:55.272Z,102720.49
2018-12-11T10:14:58.775Z,102715.65
2018-12-11T10:18:02.342Z,102714.24
2018-12-11T10:21:05.798Z,102707.20
2018-12-11T10:24:09.411Z,102705.88
2018-12-11T10:27:13.952Z,102712.98
2018-12-11T10:30:17.383Z,102714.58
2018-12-11T10:33:20.955Z,102708.19
2018-12-11T10:36:24.367Z,102701.84
2018-12-11T10:39:27.758Z,102706.92
2018-12-11T10:42:31.172Z,102705.90
2018-12-11T10:45:34.562Z,102700.20
2018-12-11T10:48:37.952Z,102697.95
2018-12-11T10:51:41.466Z,102703.43
2018-12-11T10:54:44.900Z,102694.85
2018-12-11T10:57:48.349Z,102693.61
2018-12-11T11:00:57.229Z,102695.21
2018-12-11T11:04:00.676Z,102686.78
2018-12-11T11:07:04.134Z,102686.26
2018-12-11T11:10:07.642Z,102689.24
2018-12-11T11:13:11.168Z,102688.36
2018-12-11T11:16:15.803Z,102687.05
2018-12-11T11:19:19.563Z,102681.49
2018-12-11T11:22:23.088Z,102679.20
2018-12-11T11:25:27.096Z,102676.24
2018-12-11T11:28:30.675Z,102679.64
2018-12-11T11:31:34.173Z,102682.84
2018-12-11T11:34:40.653Z,102677.41
2018-12-11T11:37:46.423Z,102679.42
2018-12-11T11:40:49.791Z,102668.57
2018-12-11T11:43:54.368Z,102663.20
2018-12-11T11:46:57.854Z,102657.97
2018-12-11T11:50:01.274Z,102653.20
2018-12-11T11:53:04.724Z,102651.31
2018-12-11T11:56:08.227Z,102652.61
2018-12-11T11:59:11.695Z,102653.74
2018-12-11T12:02:15.245Z,102647.31
2018-12-11T12:05:18.707Z,102645.35
2018-12-11T12:08:22.137Z,102645.97
2018-12-11T12:11:25.641Z,102648.72
2018-12-11T12:14:29.123Z,102647.13
2018-12-11T12:17:32.865Z,102648.47
2018-12-11T12:20:36.461Z,102637.77
2018-12-11T12:23:39.943Z,102638.53
2018-12-11T12:26:43.566Z,102635.56
2018-12-11T12:29:47.451Z,102630.00
2018-12-11T12:32:50.971Z,102630.38
2018-12-11T12:35:54.471Z,102625.65
2018-12-11T12:38:57.983Z,102623.86
2018-12-11T12:42:01.624Z,102631.83
2018-12-11T12:45:05.530Z,102624.31
2018-12-11T12:48:11.203Z,102620.15
2018-12-11T12:51:14.725Z,102622.41
2018-12-11T12:54:21.678Z,102624.59
2018-12-11T12:57:25.280Z,102628.48
2018-12-11T13:00:29.284Z,102614.09
2018-12-11T13:03:32.806Z,102622.68
2018-12-11T13:06:37.646Z,102621.43
2018-12-11T13:09:41.108Z,102619.62
2018-12-11T13:12:44.706Z,102623.60
2018-12-11T13:15:48.201Z,102628.94
2018-12-11T13:18:52.023Z,102634.26
2018-12-11T13:21:55.610Z,102641.22
2018-12-11T13:24:59.020Z,102646.08
2018-12-11T13:28:02.548Z,102649.33
2018-12-11T13:31:06.065Z,102644.43
2018-12-11T13:34:09.506Z,102647.15
2018-12-11T13:37:13.160Z,102644.27
2018-12-11T13:40:16.820Z,102643.03
2018-12-11T13:43:21.306Z,102639.65
2018-12-11T13:46:24.891Z,102644.69
2018-12-11T13:49:28.490Z,102639.26
2018-12-11T13:52:31.891Z,102643.57
2018-12-11T13:55:35.408Z,102643.63
2018-12-11T13:58:39.017Z,102639.38
2018-12-11T14:01:42.635Z,102639.06
2018-12-11T14:04:46.136Z,102632.61
2018-12-11T14:07:49.648Z,102627.61
2018-12-11T14:10:53.216Z,102630.86
2018-12-11T14:13:56.660Z,102635.21
2018-12-11T14:17:00.235Z,102627.84
2018-12-11T14:20:04.065Z,102627.84
2018-12-11T14:23:07.684Z,102631.69
2018-12-11T14:26:11.311Z,102628.40
2018-12-11T14:29:14.884Z,102630.47
2018-12-11T14:32:18.555Z,102634.22
2018-12-11T14:35:22.090Z,102628.55
2018-12-11T14:38:25.592Z,102625.77
2018-12-11T14:41:29.206Z,102625.58
2018-12-11T14:44:32.997Z,102623.30
2018-12-11T14:47:36.575Z,102626.22
2018-12-11T14:50:40.214Z,102625.15
2018-12-11T14:53:43.805Z,102630.00
2018-12-11T14:56:47.314Z,102632.68
2018-12-11T14:59:50.828Z,102638.98
2018-12-11T15:02:54.462Z,102637.71
2018-12-11T15:05:59.090Z,102632.63
2018-12-11T15:09:07.889Z,102636.50
2018-12-11T15:12:11.792Z,102633.24
2018-12-11T15:15:15.351Z,102627.64
2018-12-11T15:18:19.061Z,102626.81
2018-12-11T15:21:22.744Z,102629.30
2018-12-11T15:24:27.115Z,102623.12
2018-12-11T15:27:31.669Z,102623.53
2018-12-11T15:30:35.819Z,102618.72
2018-12-11T15:33:39.358Z,102630.06
2018-12-11T15:36:42.884Z,102631.32
2018-12-11T15:39:46.631Z,102635.85
2018-12-11T15:42:50.194Z,102641.76
2018-12-11T15:45:53.926Z,102641.56
2018-12-11T15:48:57.551Z,102639.62
2018-12-11T15:52:01.154Z,102636.33
2018-12-11T15:55:05.305Z,102635.74
2018-12-11T15:58:09.113Z,102635.97
2018-12-11T16:01:12.594Z,102640.66
2018-12-11T16:04:16.094Z,102640.64
2018-12-11T16:07:19.929Z,102643.25
2018-12-11T16:10:23.395Z,102653.25
2018-12-11T16:13:26.918Z,102655.21
2018-12-11T16:16:30.383Z,102659.93
2018-12-11T16:19:33.979Z,102669.73
2018-12-11T16:22:37.468Z,102673.88
2018-12-11T16:25:41.008Z,102679.16
2018-12-11T16:28:44.597Z,102687.26
2018-12-11T16:31:48.127Z,102691.09
2018-12-11T16:34:51.867Z,102688.17
2018-12-11T16:37:55.288Z,102693.44
2018-12-11T16:40:58.895Z,102694.88
2018-12-11T16:44:03.581Z,102704.46
2018-12-11T16:47:07.470Z,102677.82
2018-12-11T16:50:11.091Z,102679.33
2018-12-11T16:53:14.901Z,102678.30
2018-12-11T16:56:18.634Z,102671.49
2018-12-11T16:59:22.036Z,102675.24
2018-12-11T17:02:25.495Z,102686.27
2018-12-11T17:05:31.292Z,102692.44
2018-12-11T17:08:34.785Z,102696.08
2018-12-11T17:11:38.508Z,102696.81
2018-12-11T17:14:42.417Z,102705.66
2018-12-11T17:17:47.065Z,102707.25
2018-12-11T17:20:50.704Z,102714.69
2018-12-11T17:23:54.175Z,102715.53
2018-12-11T17:26:57.751Z,102719.81
2018-12-11T17:30:01.622Z,102720.85
2018-12-11T17:33:05.329Z,102716.89
2018-12-11T17:36:10.367Z,102718.72
2018-12-11T17:39:15.206Z,102714.76
2018-12-11T17:42:19.114Z,102715.97
2018-12-11T17:45:22.970Z,102715.94
2018-12-11T17:48:27.833Z,102717.74
2018-12-11T17:51:31.701Z,102722.58
2018-12-11T17:54:35.484Z,102731.30
2018-12-11T17:57:39.047Z,102729.93
2018-12-11T18:00:42.888Z,102734.66
2018-12-11T18:03:46.513Z,102739.07
2018-12-11T18:06:50.198Z,102742.96
2018-12-11T18:09:53.739Z,102739.99
2018-12-11T18:12:59.630Z,102734.75
2018-12-11T18:16:03.442Z,102737.14
2018-12-11T18:19:08.060Z,102735.37
2018-12-11T18:22:12.202Z,102734.43
2018-12-11T18:25:15.982Z,102735.23
2018-12-11T18:28:19.758Z,102732.55
2018-12-11T18:31:23.558Z,102735.86
2018-12-11T18:34:27.306Z,102732.57
2018-12-11T18:37:33.932Z,102735.03
2018-12-11T18:40:37.678Z,102733.94
2018-12-11T18:43:41.600Z,102731.95
2018-12-11T18:46:45.263Z,102733.32
2018-12-11T18:49:48.916Z,102725.69
2018-12-11T18:52:52.570Z,102736.17
2018-12-11T18:55:56.446Z,102737.47
2018-12-11T18:59:00.235Z,102738.68
2018-12-11T19:02:03.945Z,102742.45
2018-12-11T19:05:07.770Z,102742.71
2018-12-11T19:08:11.361Z,102738.50
2018-12-11T19:11:15.018Z,102738.14
2018-12-11T19:14:18.718Z,102742.80
2018-12-11T19:17:22.328Z,102737.57
2018-12-11T19:20:26.205Z,102740.90
2018-12-11T19:23:41.638Z,102737.75
2018-12-11T19:26:45.553Z,102738.34
2018-12-11T19:29:48.975Z,102744.47
2018-12-11T19:32:52.581Z,102742.90
2018-12-11T19:35:56.483Z,102741.55
2018-12-11T19:39:00.005Z,102732.02
2018-12-11T19:42:04.674Z,102736.73
2018-12-11T19:45:08.406Z,102734.27
2018-12-11T19:48:12.299Z,102726.67
2018-12-11T19:51:16.162Z,102722.24
2018-12-11T19:54:19.677Z,102718.51
2018-12-11T19:57:23.684Z,102720.67
2018-12-11T20:00:27.270Z,102723.69
2018-12-11T20:03:31.102Z,102726.48
2018-12-11T20:06:34.711Z,102717.89
2018-12-11T20:09:42.417Z,102727.55
2018-12-11T20:12:46.067Z,102724.84
2018-12-11T20:15:50.237Z,102721.06
2018-12-11T20:18:53.875Z,102715.65
2018-12-11T20:21:57.498Z,102713.39
2018-12-11T20:25:01.188Z,102713.70
2018-12-11T20:28:05.103Z,102712.65
2018-12-11T20:31:08.868Z,102710.67
2018-12-11T20:34:12.498Z,102715.42
2018-12-11T20:37:16.249Z,102716.11
2018-12-11T20:40:19.837Z,102717.70
2018-12-11T20:43:23.435Z,102725.16
2018-12-11T20:46:27.018Z,102728.64
2018-12-11T20:49:31.524Z,102724.67
2018-12-11T20:52:35.080Z,102724.28
2018-12-11T20:55:38.691Z,102724.08
2018-12-11T20:58:42.312Z,102727.73
2018-12-11T21:01:45.852Z,102720.97
2018-12-11T21:04:49.342Z,102723.76
2018-12-11T21:07:53.024Z,102732.66
2018-12-11T21:10:56.582Z,102737.18
2018-12-11T21:14:00.230Z,102740.37
2018-12-11T21:17:04.080Z,102739.69
2018-12-11T21:20:08.337Z,102741.95
2018-12-11T21:23:12.032Z,102744.24
2018-12-11T21:26:15.582Z,102741.58
2018-12-11T21:29:19.054Z,102740.95
2018-12-11T21:32:22.887Z,102738.36
2018-12-11T21:35:26.430Z,102740.90
2018-12-11T21:38:31.244Z,102731.57
2018-12-11T21:41:34.971Z,102735.18
2018-12-11T21:44:38.371Z,102734.74
2018-12-11T21:47:41.868Z,102733.75
2018-12-11T21:50:46.499Z,102738.65
2018-12-11T21:53:50.029Z,102735.93
2018-12-11T21:56:53.611Z,102735.15
2018-12-11T21:59:57.067Z,102731.05
2018-12-11T22:03:01.658Z,102733.72
2018-12-11T22:06:05.421Z,102728.26
2018-12-11T22:09:08.926Z,102733.27
2018-12-11T22:12:12.798Z,102737.25
2018-12-11T22:15:17.418Z,102733.73
2018-12-11T22:18:20.935Z,102736.84
2018-12-11T22:21:24.476Z,102738.98
2018-12-11T22:24:28.005Z,102741.47
2018-12-11T22:27:31.506Z,102733.77
2018-12-11T22:30:35.040Z,102739.40
2018-12-11T22:33:38.698Z,102728.39
2018-12-11T22:36:42.219Z,102732.25
2018-12-11T22:39:45.878Z,102733.44
2018-12-11T22:42:49.769Z,102729.58
2018-12-11T22:45:53.613Z,102730.05
2018-12-11T22:48:58.340Z,102730.71
2018-12-11T22:52:02.154Z,102733.95
2018-12-11T22:55:05.922Z,102727.97
2018-12-11T22:58:09.661Z,102736.42
2018-12-11T23:01:14.783Z,102736.08
2018-12-11T23:04:18.454Z,102733.99
2018-12-11T23:07:22.131Z,102735.66
2018-12-11T23:10:25.838Z,102740.02
2018-12-11T23:13:29.505Z,102736.34
2018-12-11T23:16:33.360Z,102736.25
2018-12-11T23:19:38.093Z,102733.12
2018-12-11T23:22:43.803Z,102729.49
2018-12-11T23:25:50.841Z,102734.46
2018-12-11T23:28:54.648Z,102727.59
2018-12-11T23:31:58.202Z,102731.03
2018-12-11T23:35:01.895Z,102732.37
2018-12-11T23:38:05.615Z,102728.16
2018-12-11T23:41:09.220Z,102731.06
2018-12-11T23:44:12.915Z,102725.76
2018-12-11T23:47:16.730Z,102723.33
2018-12-11T23:50:20.394Z,102725.75
2018-12-11T23:53:23.962Z,102719.58
2018-12-11T23:56:27.650Z,102719.96
2018-12-11T23:59:31.171Z,102722.65
